Taranto — V2AK2 — position and weather

sailwx.info

Track history (hours):
 
Tides and Currents Weather Stations Pressure Air Temp Water Temp Dewpoint Dewpoint Depression Visibility Wind Speed Wind Dir Waves Ship Positions

Taranto

Last reported at 2015-May-10 12:32 UTC. Time now 2015-May-22 10:01 UTC.
Position N 36°37' W 009°38'.
Warning: this ship's position is 11 days out of date.

Length 88 m; draft 4 m.

Type: Cargo ship. MMSI: 304010614.

Date/timePositionNaut miles runAvg speedWind from/ knotsBaromVisibWave heightAir tempDewpointWater temp
2015-May-10 12:32N 36°37' W 009°38'10 9.6
2015-May-10 11:32N 36°45' W 009°43'11 9.9
2015-May-10 10:28N 36°56' W 009°45'1210.0
2015-May-10 09:15N 37°08' W 009°47'710.1
2015-May-10 08:33N 37°15' W 009°49'10 9.9
2015-May-10 07:33N 37°25' W 009°51'1010.0
2015-May-10 06:33N 37°34' W 009°53'10 9.7
2015-May-10 05:33N 37°44' W 009°55'10 9.5
2015-May-10 04:33N 37°53' W 009°57'10 9.5
2015-May-10 03:33N 38°03' W 009°59'10 9.8
2015-May-10 02:33N 38°13' W 010°01'1110.1
2015-May-10 01:28N 38°23' W 010°03'1110.0
2015-May-10 00:22N 38°34' W 010°05'8 9.7
2015-May-09 23:33N 38°42' W 010°06'1110.0
2015-May-09 22:30N 38°53' W 010°07'  
2015-May-05 09:21N 43°42' W 006°01'5 6.9
2015-May-05 08:33N 43°42' W 005°53'6 6.3
2015-May-05 07:33N 43°40' W 005°45'8 7.5
2015-May-05 06:33N 43°37' W 005°35'8 8.4
2015-May-05 05:33N 43°35' W 005°24'  
Track history (hours):
 
Tides and Currents Weather Stations Pressure Air Temp Water Temp Dewpoint Dewpoint Depression Visibility Wind Speed Wind Dir Waves Ship Positions

Taranto

Last reported at 2015-May-10 12:32 UTC. Time now 2015-May-22 10:01 UTC.
Position N 36°37' W 009°38'.
Warning: this ship's position is 11 days out of date.

Length 88 m; draft 4 m.

Type: Cargo ship. MMSI: 304010614.

Date/timePositionNaut miles runAvg speedWind from/ knotsBaromVisibWave heightAir tempDewpointWater temp
2015-May-10 12:32N 36°37' W 009°38'10 9.6
2015-May-10 11:32N 36°45' W 009°43'11 9.9
2015-May-10 10:28N 36°56' W 009°45'1210.0
2015-May-10 09:15N 37°08' W 009°47'710.1
2015-May-10 08:33N 37°15' W 009°49'10 9.9
2015-May-10 07:33N 37°25' W 009°51'1010.0
2015-May-10 06:33N 37°34' W 009°53'10 9.7
2015-May-10 05:33N 37°44' W 009°55'10 9.5
2015-May-10 04:33N 37°53' W 009°57'10 9.5
2015-May-10 03:33N 38°03' W 009°59'10 9.8
2015-May-10 02:33N 38°13' W 010°01'1110.1
2015-May-10 01:28N 38°23' W 010°03'1110.0
2015-May-10 00:22N 38°34' W 010°05'8 9.7
2015-May-09 23:33N 38°42' W 010°06'1110.0
2015-May-09 22:30N 38°53' W 010°07'  
2015-May-05 09:21N 43°42' W 006°01'5 6.9
2015-May-05 08:33N 43°42' W 005°53'6 6.3
2015-May-05 07:33N 43°40' W 005°45'8 7.5
2015-May-05 06:33N 43°37' W 005°35'8 8.4
2015-May-05 05:33N 43°35' W 005°24'  

Dump ship's entire track history